Decoded Metar for KMSV (MONTICELLO in NY, USA) (IATA:MSV) | Meteo·Mobile Aviation Weather
aviador You're here:

KMSV Decoded Metar

MONTICELLO in NY, USA
Report Time2018-12-14 12:05:00
UTC Time2018-12-14 12:20:20
Flight Rules lifr LIFR
Wind090° at 04 kt
W.Decomp.*RWY 15: 2.7 kt HW 3 kt LCW
W.Rank090° ranks 7
Current wind is below 090° avg. (6.3)
Visibility805 m
Phenomena:Fog
Clouds:Overcast 003 Hf
Expected CloudBase > 400 ft AGL from Temp-Dew spread
Ceiling300 ft
Temp00°C (ISA -12)
Dew Point-1°C (93% RH)
AAT-3.6°C
QNH1030 hPa
Density Alt-577 ft
Elevation1,404 ft
Report Wrong Elevation
Raw Report
KMSV 141205Z AUTO 09004KT 1/2SM UP FG OVC003 00/M01 A3042 RMK AO2
P0000 FZRANO RVRNO=

Extra information for KMSV:More info

Metar Taf Metar & Taf Last 4 Metars F.Rules Stats Wind Profile Meteogram Temp Stats Airport Information Weather charts Add Link Nearby VenuesMetar ALERT Operation Metar Decoded Social comments

AIRNAV info for KMSV